sensor_id;sensor_type;location;lat;lon;timestamp;pressure;altitude;pressure_sealevel;temperature;humidity
66164;BME280;52962;51.088;3.096;2023-09-30T00:02:26;102260.06;;;14.25;nan
66164;BME280;52962;51.088;3.096;2023-09-30T00:04:56;102263.53;;;14.22;nan
66164;BME280;52962;51.088;3.096;2023-09-30T00:07:24;102253.00;;;14.25;nan
66164;BME280;52962;51.088;3.096;2023-09-30T00:09:53;102262.75;;;14.26;nan
66164;BME280;52962;51.088;3.096;2023-09-30T00:12:21;102265.22;;;14.20;nan
66164;BME280;52962;51.088;3.096;2023-09-30T00:14:49;102265.16;;;14.17;nan
66164;BME280;52962;51.088;3.096;2023-09-30T00:17:17;102282.72;;;14.14;nan
66164;BME280;52962;51.088;3.096;2023-09-30T00:19:45;102273.78;;;14.10;nan
66164;BME280;52962;51.088;3.096;2023-09-30T00:22:14;102267.66;;;14.13;nan
66164;BME280;52962;51.088;3.096;2023-09-30T00:24:43;102276.50;;;14.13;nan
66164;BME280;52962;51.088;3.096;2023-09-30T00:27:11;102278.97;;;14.07;nan
66164;BME280;52962;51.088;3.096;2023-09-30T00:29:39;102277.19;;;14.06;nan
66164;BME280;52962;51.088;3.096;2023-09-30T00:32:08;102282.47;;;14.06;nan
66164;BME280;52962;51.088;3.096;2023-09-30T00:34:36;102292.13;;;14.04;nan
66164;BME280;52962;51.088;3.096;2023-09-30T00:37:04;102289.31;;;13.98;nan
66164;BME280;52962;51.088;3.096;2023-09-30T00:39:33;102283.75;;;13.89;nan
66164;BME280;52962;51.088;3.096;2023-09-30T00:42:02;102275.97;;;13.95;nan
66164;BME280;52962;51.088;3.096;2023-09-30T00:44:31;102265.59;;;14.02;nan
66164;BME280;52962;51.088;3.096;2023-09-30T00:46:59;102281.44;;;14.01;nan
66164;BME280;52962;51.088;3.096;2023-09-30T00:49:29;102293.84;;;14.02;nan
66164;BME280;52962;51.088;3.096;2023-09-30T00:51:57;102294.97;;;14.10;nan
66164;BME280;52962;51.088;3.096;2023-09-30T00:54:26;102298.44;;;14.07;nan
66164;BME280;52962;51.088;3.096;2023-09-30T00:56:57;102281.69;;;14.08;nan
66164;BME280;52962;51.088;3.096;2023-09-30T00:59:24;102278.19;;;14.10;nan
66164;BME280;52962;51.088;3.096;2023-09-30T01:01:54;102291.50;;;14.13;nan
66164;BME280;52962;51.088;3.096;2023-09-30T01:04:26;102295.94;;;14.14;nan
66164;BME280;52962;51.088;3.096;2023-09-30T01:06:55;102302.16;;;14.14;nan
66164;BME280;52962;51.088;3.096;2023-09-30T01:09:26;102314.44;;;14.12;nan
66164;BME280;52962;51.088;3.096;2023-09-30T01:11:56;102317.09;;;14.12;nan
66164;BME280;52962;51.088;3.096;2023-09-30T01:14:25;102322.41;;;14.12;nan
66164;BME280;52962;51.088;3.096;2023-09-30T01:16:54;102317.19;;;14.15;nan
66164;BME280;52962;51.088;3.096;2023-09-30T01:19:22;102309.25;;;14.15;nan
66164;BME280;52962;51.088;3.096;2023-09-30T01:21:54;102305.59;;;14.12;nan
66164;BME280;52962;51.088;3.096;2023-09-30T01:24:27;102303.75;;;14.09;nan
66164;BME280;52962;51.088;3.096;2023-09-30T01:26:56;102317.91;;;14.10;nan
66164;BME280;52962;51.088;3.096;2023-09-30T01:29:25;102319.56;;;14.06;nan
66164;BME280;52962;51.088;3.096;2023-09-30T01:31:53;102323.06;;;14.05;nan
66164;BME280;52962;51.088;3.096;2023-09-30T01:34:21;102310.69;;;14.04;nan
66164;BME280;52962;51.088;3.096;2023-09-30T01:36:49;102311.50;;;14.01;nan
66164;BME280;52962;51.088;3.096;2023-09-30T01:39:19;102304.41;;;14.00;nan
66164;BME280;52962;51.088;3.096;2023-09-30T01:41:47;102289.41;;;14.01;nan
66164;BME280;52962;51.088;3.096;2023-09-30T01:44:15;102290.28;;;14.01;nan
66164;BME280;52962;51.088;3.096;2023-09-30T01:46:44;102289.34;;;13.99;nan
66164;BME280;52962;51.088;3.096;2023-09-30T01:49:12;102298.97;;;13.96;nan
66164;BME280;52962;51.088;3.096;2023-09-30T01:51:40;102302.50;;;13.96;nan
66164;BME280;52962;51.088;3.096;2023-09-30T01:54:09;102314.00;;;13.97;nan
66164;BME280;52962;51.088;3.096;2023-09-30T01:56:39;102303.34;;;13.95;nan
66164;BME280;52962;51.088;3.096;2023-09-30T01:59:08;102303.31;;;13.94;nan
66164;BME280;52962;51.088;3.096;2023-09-30T02:01:36;102313.00;;;13.93;nan
66164;BME280;52962;51.088;3.096;2023-09-30T02:04:05;102306.81;;;13.93;nan
66164;BME280;52962;51.088;3.096;2023-09-30T02:06:34;102301.56;;;13.94;nan
66164;BME280;52962;51.088;3.096;2023-09-30T02:09:03;102293.72;;;13.97;nan
66164;BME280;52962;51.088;3.096;2023-09-30T02:11:35;102303.53;;;14.01;nan
66164;BME280;52962;51.088;3.096;2023-09-30T02:14:05;102303.63;;;14.04;nan
66164;BME280;52962;51.088;3.096;2023-09-30T02:16:34;102311.56;;;14.04;nan
66164;BME280;52962;51.088;3.096;2023-09-30T02:19:02;102312.47;;;14.05;nan
66164;BME280;52962;51.088;3.096;2023-09-30T02:21:30;102315.09;;;14.03;nan
66164;BME280;52962;51.088;3.096;2023-09-30T02:23:58;102312.47;;;14.05;nan
66164;BME280;52962;51.088;3.096;2023-09-30T02:26:26;102306.38;;;14.07;nan
66164;BME280;52962;51.088;3.096;2023-09-30T02:28:56;102301.03;;;14.06;nan
66164;BME280;52962;51.088;3.096;2023-09-30T02:31:25;102307.19;;;14.05;nan
66164;BME280;52962;51.088;3.096;2023-09-30T02:33:54;102314.09;;;14.00;nan
66164;BME280;52962;51.088;3.096;2023-09-30T02:36:23;102314.09;;;14.00;nan
66164;BME280;52962;51.088;3.096;2023-09-30T02:38:51;102319.47;;;14.03;nan
66164;BME280;52962;51.088;3.096;2023-09-30T02:41:20;102316.88;;;14.04;nan
66164;BME280;52962;51.088;3.096;2023-09-30T02:43:48;102298.34;;;14.04;nan
66164;BME280;52962;51.088;3.096;2023-09-30T02:46:16;102307.13;;;14.03;nan
66164;BME280;52962;51.088;3.096;2023-09-30T02:48:47;102304.53;;;14.05;nan
66164;BME280;52962;51.088;3.096;2023-09-30T02:51:15;102305.38;;;14.04;nan
66164;BME280;52962;51.088;3.096;2023-09-30T02:53:43;102301.78;;;14.02;nan
66164;BME280;52962;51.088;3.096;2023-09-30T02:56:11;102293.75;;;13.99;nan
66164;BME280;52962;51.088;3.096;2023-09-30T02:58:39;102304.31;;;13.97;nan
66164;BME280;52962;51.088;3.096;2023-09-30T03:01:07;102304.22;;;13.94;nan
66164;BME280;52962;51.088;3.096;2023-09-30T03:03:39;102303.19;;;13.89;nan
66164;BME280;52962;51.088;3.096;2023-09-30T03:06:09;102295.19;;;13.88;nan
66164;BME280;52962;51.088;3.096;2023-09-30T03:08:39;102302.81;;;13.77;nan
66164;BME280;52962;51.088;3.096;2023-09-30T03:11:07;102297.38;;;13.72;nan
66164;BME280;52962;51.088;3.096;2023-09-30T03:13:35;102302.84;;;13.79;nan
66164;BME280;52962;51.088;3.096;2023-09-30T03:16:04;102293.88;;;13.73;nan
66164;BME280;52962;51.088;3.096;2023-09-30T03:18:32;102302.28;;;13.60;nan
66164;BME280;52962;51.088;3.096;2023-09-30T03:21:01;102296.22;;;13.64;nan
66164;BME280;52962;51.088;3.096;2023-09-30T03:23:36;102292.44;;;13.56;nan
66164;BME280;52962;51.088;3.096;2023-09-30T03:26:05;102292.34;;;13.53;nan
66164;BME280;52962;51.088;3.096;2023-09-30T03:28:37;102296.34;;;13.39;nan
66164;BME280;52962;51.088;3.096;2023-09-30T03:31:05;102288.16;;;13.31;nan
66164;BME280;52962;51.088;3.096;2023-09-30T03:33:34;102296.81;;;13.26;nan
66164;BME280;52962;51.088;3.096;2023-09-30T03:36:02;102297.16;;;13.36;nan
66164;BME280;52962;51.088;3.096;2023-09-30T03:38:31;102290.97;;;13.36;nan
66164;BME280;52962;51.088;3.096;2023-09-30T03:41:01;102293.81;;;13.42;nan
66164;BME280;52962;51.088;3.096;2023-09-30T03:43:29;102296.53;;;13.45;nan
66164;BME280;52962;51.088;3.096;2023-09-30T03:45:58;102286.81;;;13.44;nan
66164;BME280;52962;51.088;3.096;2023-09-30T03:48:27;102285.09;;;13.46;nan
66164;BME280;52962;51.088;3.096;2023-09-30T03:50:55;102284.06;;;13.41;nan
66164;BME280;52962;51.088;3.096;2023-09-30T03:53:24;102282.97;;;13.34;nan
66164;BME280;52962;51.088;3.096;2023-09-30T03:55:53;102290.56;;;13.24;nan
66164;BME280;52962;51.088;3.096;2023-09-30T03:58:23;102295.94;;;13.27;nan
66164;BME280;52962;51.088;3.096;2023-09-30T04:00:51;102292.56;;;13.31;nan
66164;BME280;52962;51.088;3.096;2023-09-30T04:03:19;102299.50;;;13.27;nan
66164;BME280;52962;51.088;3.096;2023-09-30T04:05:48;102305.69;;;13.28;nan
66164;BME280;52962;51.088;3.096;2023-09-30T04:08:17;102296.91;;;13.29;nan
66164;BME280;52962;51.088;3.096;2023-09-30T04:10:45;102300.28;;;13.25;nan
66164;BME280;52962;51.088;3.096;2023-09-30T04:13:14;102294.06;;;13.23;nan
66164;BME280;52962;51.088;3.096;2023-09-30T04:15:43;102282.47;;;13.19;nan
66164;BME280;52962;51.088;3.096;2023-09-30T04:18:15;102281.56;;;13.19;nan
66164;BME280;52962;51.088;3.096;2023-09-30T04:20:47;102278.88;;;13.17;nan
66164;BME280;52962;51.088;3.096;2023-09-30T04:23:14;102282.28;;;13.15;nan
66164;BME280;52962;51.088;3.096;2023-09-30T04:25:43;102265.47;;;13.13;nan
66164;BME280;52962;51.088;3.096;2023-09-30T04:28:11;102281.34;;;13.13;nan
66164;BME280;52962;51.088;3.096;2023-09-30T04:30:40;102283.78;;;13.06;nan
66164;BME280;52962;51.088;3.096;2023-09-30T04:33:10;102282.94;;;13.07;nan
66164;BME280;52962;51.088;3.096;2023-09-30T04:35:39;102278.59;;;13.09;nan
66164;BME280;52962;51.088;3.096;2023-09-30T04:38:07;102282.94;;;13.07;nan
66164;BME280;52962;51.088;3.096;2023-09-30T04:40:36;102281.13;;;13.06;nan
66164;BME280;52962;51.088;3.096;2023-09-30T04:43:04;102284.78;;;13.10;nan
66164;BME280;52962;51.088;3.096;2023-09-30T04:45:33;102295.38;;;13.10;nan
66164;BME280;52962;51.088;3.096;2023-09-30T04:48:01;102315.63;;;13.09;nan
66164;BME280;52962;51.088;3.096;2023-09-30T04:50:31;102300.59;;;13.08;nan
66164;BME280;52962;51.088;3.096;2023-09-30T04:52:59;102293.50;;;13.07;nan
66164;BME280;52962;51.088;3.096;2023-09-30T04:55:27;102293.50;;;13.07;nan
66164;BME280;52962;51.088;3.096;2023-09-30T04:57:55;102283.69;;;13.03;nan
66164;BME280;52962;51.088;3.096;2023-09-30T05:00:23;102280.13;;;13.03;nan
66164;BME280;52962;51.088;3.096;2023-09-30T05:02:55;102287.13;;;13.01;nan
66164;BME280;52962;51.088;3.096;2023-09-30T05:05:23;102286.22;;;13.00;nan
66164;BME280;52962;51.088;3.096;2023-09-30T05:07:53;102288.03;;;13.01;nan
66164;BME280;52962;51.088;3.096;2023-09-30T05:10:21;102278.28;;;13.00;nan
66164;BME280;52962;51.088;3.096;2023-09-30T05:12:49;102284.47;;;13.01;nan
66164;BME280;52962;51.088;3.096;2023-09-30T05:15:21;102282.63;;;12.98;nan
66164;BME280;52962;51.088;3.096;2023-09-30T05:17:49;102270.25;;;12.97;nan
66164;BME280;52962;51.088;3.096;2023-09-30T05:20:17;102264.00;;;12.95;nan
66164;BME280;52962;51.088;3.096;2023-09-30T05:22:46;102272.16;;;13.01;nan
66164;BME280;52962;51.088;3.096;2023-09-30T05:25:17;102276.66;;;13.04;nan
66164;BME280;52962;51.088;3.096;2023-09-30T05:27:45;102284.59;;;13.04;nan
66164;BME280;52962;51.088;3.096;2023-09-30T05:30:15;102287.91;;;12.98;nan
66164;BME280;52962;51.088;3.096;2023-09-30T05:32:44;102291.41;;;12.97;nan
66164;BME280;52962;51.088;3.096;2023-09-30T05:35:14;102302.09;;;13.00;nan
66164;BME280;52962;51.088;3.096;2023-09-30T05:37:44;102304.63;;;12.97;nan
66164;BME280;52962;51.088;3.096;2023-09-30T05:40:13;102305.38;;;12.93;nan
66164;BME280;52962;51.088;3.096;2023-09-30T05:42:52;102303.47;;;12.89;nan
66164;BME280;52962;51.088;3.096;2023-09-30T05:45:22;102301.56;;;12.85;nan
66164;BME280;52962;51.088;3.096;2023-09-30T05:47:53;102313.00;;;12.84;nan
66164;BME280;52962;51.088;3.096;2023-09-30T05:50:23;102316.38;;;12.80;nan
66164;BME280;52962;51.088;3.096;2023-09-30T05:52:54;102323.19;;;12.73;nan
66164;BME280;52962;51.088;3.096;2023-09-30T05:55:23;102334.81;;;12.53;nan
66164;BME280;52962;51.088;3.096;2023-09-30T05:57:55;102331.25;;;12.53;nan
66164;BME280;52962;51.088;3.096;2023-09-30T06:00:23;102333.06;;;12.54;nan
66164;BME280;52962;51.088;3.096;2023-09-30T06:02:56;102330.53;;;12.57;nan
66164;BME280;52962;51.088;3.096;2023-09-30T06:05:25;102330.47;;;12.55;nan
66164;BME280;52962;51.088;3.096;2023-09-30T06:07:56;102335.81;;;12.57;nan
66164;BME280;52962;51.088;3.096;2023-09-30T06:10:25;102329.63;;;12.56;nan
66164;BME280;52962;51.088;3.096;2023-09-30T06:12:54;102333.91;;;12.53;nan
66164;BME280;52962;51.088;3.096;2023-09-30T06:15:24;102328.72;;;12.56;nan
66164;BME280;52962;51.088;3.096;2023-09-30T06:17:54;102330.53;;;12.57;nan
66164;BME280;52962;51.088;3.096;2023-09-30T06:20:23;102331.44;;;12.57;nan
66164;BME280;52962;51.088;3.096;2023-09-30T06:22:54;102327.38;;;12.67;nan
66164;BME280;52962;51.088;3.096;2023-09-30T06:25:22;102328.38;;;12.70;nan
66164;BME280;52962;51.088;3.096;2023-09-30T06:27:52;102333.78;;;12.73;nan
66164;BME280;52962;51.088;3.096;2023-09-30T06:30:24;102355.03;;;12.76;nan
66164;BME280;52962;51.088;3.096;2023-09-30T06:32:58;102361.38;;;12.82;nan
66164;BME280;52962;51.088;3.096;2023-09-30T06:35:28;102370.31;;;12.85;nan
66164;BME280;52962;51.088;3.096;2023-09-30T06:37:57;102371.38;;;12.90;nan
66164;BME280;52962;51.088;3.096;2023-09-30T06:40:25;102368.72;;;12.90;nan
66164;BME280;52962;51.088;3.096;2023-09-30T06:42:54;102367.94;;;12.93;nan
66164;BME280;52962;51.088;3.096;2023-09-30T06:45:23;102371.59;;;12.96;nan
66164;BME280;52962;51.088;3.096;2023-09-30T06:47:53;102362.88;;;12.99;nan
66164;BME280;52962;51.088;3.096;2023-09-30T06:50:22;102361.16;;;13.01;nan
66164;BME280;52962;51.088;3.096;2023-09-30T06:52:50;102365.66;;;13.03;nan
66164;BME280;52962;51.088;3.096;2023-09-30T06:55:19;102351.59;;;13.04;nan
66164;BME280;52962;51.088;3.096;2023-09-30T06:57:47;102346.41;;;13.07;nan
66164;BME280;52962;51.088;3.096;2023-09-30T07:00:15;102345.56;;;13.08;nan
66164;BME280;52962;51.088;3.096;2023-09-30T07:02:44;102346.53;;;13.10;nan
66164;BME280;52962;51.088;3.096;2023-09-30T07:05:14;102351.97;;;13.15;nan
66164;BME280;52962;51.088;3.096;2023-09-30T07:07:43;102361.88;;;13.21;nan
66164;BME280;52962;51.088;3.096;2023-09-30T07:10:12;102357.59;;;13.24;nan
66164;BME280;52962;51.088;3.096;2023-09-30T07:12:41;102358.66;;;13.29;nan
66164;BME280;52962;51.088;3.096;2023-09-30T07:15:10;102363.19;;;13.33;nan
66164;BME280;52962;51.088;3.096;2023-09-30T07:17:39;102370.44;;;13.39;nan
66164;BME280;52962;51.088;3.096;2023-09-30T07:20:13;102377.75;;;13.46;nan
66164;BME280;52962;51.088;3.096;2023-09-30T07:22:42;102387.63;;;13.52;nan
66164;BME280;52962;51.088;3.096;2023-09-30T07:25:29;102385.09;;;13.56;nan
66164;BME280;52962;51.088;3.096;2023-09-30T07:27:58;102380.00;;;13.62;nan
66164;BME280;52962;51.088;3.096;2023-09-30T07:30:28;102387.28;;;13.69;nan
66164;BME280;52962;51.088;3.096;2023-09-30T07:32:56;102386.53;;;13.73;nan
66164;BME280;52962;51.088;3.096;2023-09-30T07:35:25;102408.78;;;13.79;nan
66164;BME280;52962;51.088;3.096;2023-09-30T07:37:54;102413.25;;;13.81;nan
66164;BME280;52962;51.088;3.096;2023-09-30T07:40:22;102409.72;;;13.81;nan
66164;BME280;52962;51.088;3.096;2023-09-30T07:42:50;102405.38;;;13.83;nan
66164;BME280;52962;51.088;3.096;2023-09-30T07:45:18;102409.00;;;13.86;nan
66164;BME280;52962;51.088;3.096;2023-09-30T07:47:48;102405.56;;;13.89;nan
66164;BME280;52962;51.088;3.096;2023-09-30T07:50:16;102408.31;;;13.92;nan
66164;BME280;52962;51.088;3.096;2023-09-30T07:52:46;102401.50;;;14.00;nan
66164;BME280;52962;51.088;3.096;2023-09-30T07:55:14;102399.03;;;14.06;nan
66164;BME280;52962;51.088;3.096;2023-09-30T07:57:43;102396.59;;;14.12;nan
66164;BME280;52962;51.088;3.096;2023-09-30T08:00:12;102388.81;;;14.18;nan
66164;BME280;52962;51.088;3.096;2023-09-30T08:02:43;102382.44;;;14.12;nan
66164;BME280;52962;51.088;3.096;2023-09-30T08:05:12;102388.00;;;14.21;nan
66164;BME280;52962;51.088;3.096;2023-09-30T08:07:40;102387.31;;;14.26;nan
66164;BME280;52962;51.088;3.096;2023-09-30T08:10:10;102390.13;;;14.32;nan
66164;BME280;52962;51.088;3.096;2023-09-30T08:12:41;102400.78;;;14.34;nan
66164;BME280;52962;51.088;3.096;2023-09-30T08:15:13;102410.78;;;14.43;nan
66164;BME280;52962;51.088;3.096;2023-09-30T08:17:41;102412.72;;;14.48;nan
66164;BME280;52962;51.088;3.096;2023-09-30T08:20:10;102419.97;;;14.54;nan
66164;BME280;52962;51.088;3.096;2023-09-30T08:22:39;102412.19;;;14.61;nan
66164;BME280;52962;51.088;3.096;2023-09-30T08:25:10;102416.78;;;14.67;nan
66164;BME280;52962;51.088;3.096;2023-09-30T08:27:38;102425.75;;;14.72;nan
66164;BME280;52962;51.088;3.096;2023-09-30T08:30:07;102433.03;;;14.79;nan
66164;BME280;52962;51.088;3.096;2023-09-30T08:32:37;102425.28;;;14.87;nan
66164;BME280;52962;51.088;3.096;2023-09-30T08:35:07;102419.25;;;14.92;nan
66164;BME280;52962;51.088;3.096;2023-09-30T08:37:36;102417.63;;;14.97;nan
66164;BME280;52962;51.088;3.096;2023-09-30T08:40:06;102423.06;;;15.02;nan
66164;BME280;52962;51.088;3.096;2023-09-30T08:42:38;102423.28;;;15.10;nan
66164;BME280;52962;51.088;3.096;2023-09-30T08:45:10;102412.75;;;15.13;nan
66164;BME280;52962;51.088;3.096;2023-09-30T08:47:42;102416.47;;;15.19;nan
66164;BME280;52962;51.088;3.096;2023-09-30T08:50:11;102418.41;;;15.26;nan
66164;BME280;52962;51.088;3.096;2023-09-30T08:52:41;102419.47;;;15.33;nan
66164;BME280;52962;51.088;3.096;2023-09-30T08:55:11;102435.56;;;15.39;nan
66164;BME280;52962;51.088;3.096;2023-09-30T08:57:42;102438.50;;;15.50;nan
66164;BME280;52962;51.088;3.096;2023-09-30T09:00:12;102440.31;;;15.52;nan
66164;BME280;52962;51.088;3.096;2023-09-30T09:02:41;102454.09;;;15.72;nan
66164;BME280;52962;51.088;3.096;2023-09-30T09:05:10;102441.94;;;15.82;nan
66164;BME280;52962;51.088;3.096;2023-09-30T09:07:38;102451.06;;;15.93;nan
66164;BME280;52962;51.088;3.096;2023-09-30T09:10:08;102457.47;;;16.01;nan
66164;BME280;52962;51.088;3.096;2023-09-30T09:12:37;102455.06;;;16.12;nan
66164;BME280;52962;51.088;3.096;2023-09-30T09:15:19;102460.56;;;16.19;nan
66164;BME280;52962;51.088;3.096;2023-09-30T09:17:49;102468.69;;;16.25;nan
66164;BME280;52962;51.088;3.096;2023-09-30T09:20:20;102473.28;;;16.32;nan
66164;BME280;52962;51.088;3.096;2023-09-30T09:22:51;102464.53;;;16.38;nan
66164;BME280;52962;51.088;3.096;2023-09-30T09:25:21;102462.03;;;16.46;nan
66164;BME280;52962;51.088;3.096;2023-09-30T09:27:51;102463.97;;;16.53;nan
66164;BME280;52962;51.088;3.096;2023-09-30T09:30:23;102463.19;;;16.57;nan
66164;BME280;52962;51.088;3.096;2023-09-30T09:33:00;102460.59;;;16.60;nan
66164;BME280;52962;51.088;3.096;2023-09-30T09:35:29;102464.31;;;16.68;nan
66164;BME280;52962;51.088;3.096;2023-09-30T09:38:00;102463.59;;;16.77;nan
66164;BME280;52962;51.088;3.096;2023-09-30T09:40:31;102462.88;;;16.85;nan
66164;BME280;52962;51.088;3.096;2023-09-30T09:43:00;102451.44;;;16.89;nan
66164;BME280;52962;51.088;3.096;2023-09-30T09:45:34;102455.09;;;16.94;nan
66164;BME280;52962;51.088;3.096;2023-09-30T09:48:04;102457.09;;;17.06;nan
66164;BME280;52962;51.088;3.096;2023-09-30T09:50:34;102450.09;;;17.11;nan
66164;BME280;52962;51.088;3.096;2023-09-30T09:53:05;102451.97;;;17.17;nan
66164;BME280;52962;51.088;3.096;2023-09-30T09:55:33;102446.75;;;17.23;nan
66164;BME280;52962;51.088;3.096;2023-09-30T09:58:06;102454.88;;;17.29;nan
66164;BME280;52962;51.088;3.096;2023-09-30T10:00:38;102445.25;;;17.37;nan
66164;BME280;52962;51.088;3.096;2023-09-30T10:03:09;102438.09;;;17.35;nan
66164;BME280;52962;51.088;3.096;2023-09-30T10:05:38;102443.91;;;17.62;nan
66164;BME280;52962;51.088;3.096;2023-09-30T10:08:12;102438.88;;;17.79;nan
66164;BME280;52962;51.088;3.096;2023-09-30T10:10:44;102439.69;;;17.75;nan
66164;BME280;52962;51.088;3.096;2023-09-30T10:16:48;102433.19;;;18.13;nan
66164;BME280;52962;51.088;3.096;2023-09-30T10:19:20;102431.66;;;18.30;nan
66164;BME280;52962;51.088;3.096;2023-09-30T10:22:21;102431.84;;;18.44;nan
66164;BME280;52962;51.088;3.096;2023-09-30T10:24:52;102418.69;;;18.59;nan
66164;BME280;52962;51.088;3.096;2023-09-30T10:27:34;102412.63;;;18.73;nan
66164;BME280;52962;51.088;3.096;2023-09-30T10:30:09;102410.88;;;18.75;nan
66164;BME280;52962;51.088;3.096;2023-09-30T10:33:10;102419.94;;;18.90;nan
66164;BME280;52962;51.088;3.096;2023-09-30T10:35:47;102419.09;;;18.93;nan
66164;BME280;52962;51.088;3.096;2023-09-30T10:38:38;102408.41;;;18.93;nan
66164;BME280;52962;51.088;3.096;2023-09-30T10:41:08;102410.06;;;18.82;nan
66164;BME280;52962;51.088;3.096;2023-09-30T10:43:38;102407.38;;;18.80;nan
66164;BME280;52962;51.088;3.096;2023-09-30T10:46:30;102406.47;;;18.80;nan
66164;BME280;52962;51.088;3.096;2023-09-30T10:49:30;102407.34;;;18.79;nan
66164;BME280;52962;51.088;3.096;2023-09-30T10:52:00;102404.75;;;18.83;nan
66164;BME280;52962;51.088;3.096;2023-09-30T10:54:31;102403.00;;;18.85;nan
66164;BME280;52962;51.088;3.096;2023-09-30T10:57:00;102398.63;;;18.93;nan
66164;BME280;52962;51.088;3.096;2023-09-30T10:59:31;102396.13;;;19.09;nan
66164;BME280;52962;51.088;3.096;2023-09-30T11:02:02;102382.00;;;19.23;nan
66164;BME280;52962;51.088;3.096;2023-09-30T11:04:46;102383.03;;;19.39;nan
66164;BME280;52962;51.088;3.096;2023-09-30T11:07:22;102377.91;;;19.61;nan
66164;BME280;52962;51.088;3.096;2023-09-30T11:09:53;102371.72;;;19.68;nan
66164;BME280;52962;51.088;3.096;2023-09-30T11:12:25;102364.63;;;19.71;nan
66164;BME280;52962;51.088;3.096;2023-09-30T11:14:59;102369.13;;;19.83;nan
66164;BME280;52962;51.088;3.096;2023-09-30T11:17:28;102367.41;;;19.92;nan
66164;BME280;52962;51.088;3.096;2023-09-30T11:19:58;102361.19;;;19.97;nan
66164;BME280;52962;51.088;3.096;2023-09-30T11:22:27;102365.69;;;20.02;nan
66164;BME280;52962;51.088;3.096;2023-09-30T11:24:55;102341.56;;;19.93;nan
66164;BME280;52962;51.088;3.096;2023-09-30T11:27:24;102343.38;;;19.97;nan
66164;BME280;52962;51.088;3.096;2023-09-30T11:29:54;102344.25;;;19.96;nan
66164;BME280;52962;51.088;3.096;2023-09-30T11:32:23;102345.16;;;20.01;nan
66164;BME280;52962;51.088;3.096;2023-09-30T11:34:54;102334.50;;;20.07;nan
66164;BME280;52962;51.088;3.096;2023-09-30T11:37:30;102343.44;;;20.11;nan
66164;BME280;52962;51.088;3.096;2023-09-30T11:40:09;102352.41;;;20.23;nan
66164;BME280;52962;51.088;3.096;2023-09-30T11:42:37;102350.66;;;20.30;nan
66164;BME280;52962;51.088;3.096;2023-09-30T11:45:18;102363.16;;;20.33;nan
66164;BME280;52962;51.088;3.096;2023-09-30T11:47:47;102369.47;;;20.41;nan
66164;BME280;52962;51.088;3.096;2023-09-30T11:50:15;102365.91;;;20.46;nan
66164;BME280;52962;51.088;3.096;2023-09-30T11:52:45;102374.88;;;20.56;nan
66164;BME280;52962;51.088;3.096;2023-09-30T11:55:14;102369.53;;;20.62;nan
66164;BME280;52962;51.088;3.096;2023-09-30T11:57:43;102362.41;;;20.61;nan
66164;BME280;52962;51.088;3.096;2023-09-30T12:00:12;102367.78;;;20.66;nan
66164;BME280;52962;51.088;3.096;2023-09-30T12:02:41;102370.44;;;20.66;nan
66164;BME280;52962;51.088;3.096;2023-09-30T12:05:09;102367.75;;;20.58;nan
66164;BME280;52962;51.088;3.096;2023-09-30T12:07:38;102371.25;;;20.43;nan
66164;BME280;52962;51.088;3.096;2023-09-30T12:10:10;102369.38;;;20.29;nan
66164;BME280;52962;51.088;3.096;2023-09-30T12:12:42;102372.88;;;20.12;nan
66164;BME280;52962;51.088;3.096;2023-09-30T12:15:11;102367.56;;;20.20;nan
66164;BME280;52962;51.088;3.096;2023-09-30T12:17:40;102369.41;;;20.33;nan
66164;BME280;52962;51.088;3.096;2023-09-30T12:20:09;102365.91;;;20.42;nan
66164;BME280;52962;51.088;3.096;2023-09-30T12:22:38;102366.75;;;20.38;nan
66164;BME280;52962;51.088;3.096;2023-09-30T12:25:07;102353.31;;;20.22;nan
66164;BME280;52962;51.088;3.096;2023-09-30T12:27:37;102349.69;;;20.14;nan
66164;BME280;52962;51.088;3.096;2023-09-30T12:30:07;102343.41;;;20.06;nan
66164;BME280;52962;51.088;3.096;2023-09-30T12:32:35;102346.09;;;20.06;nan
66164;BME280;52962;51.088;3.096;2023-09-30T12:35:04;102343.44;;;20.14;nan
66164;BME280;52962;51.088;3.096;2023-09-30T12:37:32;102341.69;;;20.19;nan
66164;BME280;52962;51.088;3.096;2023-09-30T12:40:00;102339.09;;;20.36;nan
66164;BME280;52962;51.088;3.096;2023-09-30T12:42:30;102340.06;;;20.54;nan
66164;BME280;52962;51.088;3.096;2023-09-30T12:45:00;102337.44;;;20.64;nan
66164;BME280;52962;51.088;3.096;2023-09-30T12:47:28;102328.50;;;20.57;nan
66164;BME280;52962;51.088;3.096;2023-09-30T12:49:57;102316.91;;;20.64;nan
66164;BME280;52962;51.088;3.096;2023-09-30T12:52:25;102318.72;;;20.74;nan
66164;BME280;52962;51.088;3.096;2023-09-30T12:54:53;102320.47;;;20.84;nan
66164;BME280;52962;51.088;3.096;2023-09-30T12:57:22;102316.94;;;20.98;nan
66164;BME280;52962;51.088;3.096;2023-09-30T12:59:50;102317.81;;;21.03;nan
66164;BME280;52962;51.088;3.096;2023-09-30T13:02:20;102314.25;;;20.98;nan
66164;BME280;52962;51.088;3.096;2023-09-30T13:04:48;102316.03;;;20.86;nan
66164;BME280;52962;51.088;3.096;2023-09-30T13:07:16;102315.13;;;20.84;nan
66164;BME280;52962;51.088;3.096;2023-09-30T13:09:44;102309.75;;;20.81;nan
66164;BME280;52962;51.088;3.096;2023-09-30T13:12:13;102305.31;;;20.71;nan
66164;BME280;52962;51.088;3.096;2023-09-30T13:14:41;102283.88;;;20.80;nan
66164;BME280;52962;51.088;3.096;2023-09-30T13:17:10;102289.25;;;20.97;nan
66164;BME280;52962;51.088;3.096;2023-09-30T13:19:42;102274.97;;;21.10;nan
66164;BME280;52962;51.088;3.096;2023-09-30T13:22:10;102276.78;;;21.22;nan
66164;BME280;52962;51.088;3.096;2023-09-30T13:24:45;102267.84;;;21.35;nan
66164;BME280;52962;51.088;3.096;2023-09-30T13:27:13;102266.94;;;21.41;nan
66164;BME280;52962;51.088;3.096;2023-09-30T13:29:42;102266.03;;;21.37;nan